Time;durP1;ratioP1;P1;durP2;ratioP2;P2;SDS_P1;SDS_P2;PMS_P1;PMS_P2;Temp;Humidity;BMP_temperature;BMP_pressure;BME280_temperature;BME280_humidity;BME280_pressure;Samples;Min_cycle;Max_cycle;Signal;HPM_P1;HPM_P2
2021/03/09 00:00:22;;;;;;;97.63;53.72;;;6.50;99.90;;;;;;2063246;28;20088;-79
2021/03/09 00:01:23;;;;;;;95.30;52.75;;;6.50;99.90;;;;;;2063396;28;20085;-80
2021/03/09 00:02:24;;;;;;;104.15;56.47;;;6.60;99.90;;;;;;2063411;28;20552;-79
2021/03/09 00:03:24;;;;;;;97.30;53.50;;;6.60;99.90;;;;;;2055644;28;20525;-80
2021/03/09 00:04:25;;;;;;;91.63;54.25;;;6.50;99.90;;;;;;2055551;28;20581;-79
2021/03/09 00:05:26;;;;;;;102.35;55.20;;;6.50;99.90;;;;;;2062818;28;20106;-78
2021/03/09 00:06:26;;;;;;;99.82;54.17;;;6.50;99.90;;;;;;2055947;28;20022;-79
2021/03/09 00:07:27;;;;;;;99.22;54.00;;;6.60;99.90;;;;;;2056101;28;20421;-79
2021/03/09 00:08:27;;;;;;;101.72;54.50;;;6.50;99.90;;;;;;2048796;28;20027;-79
2021/03/09 00:09:28;;;;;;;98.03;53.70;;;6.60;99.90;;;;;;2056577;28;20448;-79
2021/03/09 00:10:29;;;;;;;103.78;55.35;;;6.60;99.90;;;;;;2063369;28;20058;-83
2021/03/09 00:11:30;;;;;;;105.05;55.92;;;6.60;99.90;;;;;;2056018;28;20062;-79
2021/03/09 00:12:31;;;;;;;103.28;56.28;;;6.50;99.90;;;;;;2064350;28;20050;-80
2021/03/09 00:13:31;;;;;;;98.47;53.20;;;6.60;99.90;;;;;;2072802;28;20030;-79
2021/03/09 00:14:32;;;;;;;94.72;52.47;;;6.60;99.90;;;;;;2072863;28;20021;-80
2021/03/09 00:15:33;;;;;;;101.53;53.13;;;6.60;99.90;;;;;;2073316;28;20507;-80
2021/03/09 00:16:33;;;;;;;96.85;54.17;;;6.60;99.90;;;;;;2073001;28;20026;-81
2021/03/09 00:17:34;;;;;;;100.93;54.75;;;6.60;99.90;;;;;;2065651;28;20103;-80
2021/03/09 00:18:35;;;;;;;101.80;55.47;;;6.60;99.90;;;;;;2064020;28;20343;-79
2021/03/09 00:19:35;;;;;;;97.93;53.20;;;6.60;99.90;;;;;;2073876;28;20026;-80
2021/03/09 00:20:36;;;;;;;101.53;55.45;;;6.60;99.90;;;;;;2073152;28;20038;-83
2021/03/09 00:21:37;;;;;;;98.28;53.72;;;6.60;99.90;;;;;;2065349;28;20027;-79
2021/03/09 00:22:37;;;;;;;102.50;54.28;;;6.60;99.90;;;;;;2065327;28;20043;-81
2021/03/09 00:23:38;;;;;;;98.80;53.33;;;6.60;99.90;;;;;;2064406;28;20074;-79
2021/03/09 00:24:39;;;;;;;98.50;53.25;;;6.60;99.90;;;;;;2064726;28;20023;-80
2021/03/09 00:25:39;;;;;;;97.80;52.78;;;6.60;99.90;;;;;;2064937;28;20087;-81
2021/03/09 00:26:40;;;;;;;99.80;52.47;;;6.60;99.90;;;;;;2063685;28;20035;-80
2021/03/09 00:27:41;;;;;;;103.57;55.92;;;6.60;99.90;;;;;;2064956;28;20030;-80
2021/03/09 00:28:41;;;;;;;105.95;55.35;;;6.60;99.90;;;;;;2064918;28;20027;-80
2021/03/09 00:29:42;;;;;;;104.80;57.03;;;6.60;99.90;;;;;;2065508;28;20045;-79
2021/03/09 00:30:42;;;;;;;104.00;57.25;;;6.60;99.90;;;;;;2065432;28;20029;-79
2021/03/09 00:31:43;;;;;;;102.88;55.72;;;6.70;99.90;;;;;;2065016;28;20027;-80
2021/03/09 00:32:44;;;;;;;105.22;58.25;;;6.70;99.90;;;;;;2068874;28;20019;-80
2021/03/09 00:33:44;;;;;;;99.00;56.47;;;6.70;99.90;;;;;;2073048;28;20014;-79
2021/03/09 00:34:45;;;;;;;104.32;58.92;;;6.70;99.90;;;;;;2072401;28;20022;-80
2021/03/09 00:35:46;;;;;;;106.60;57.28;;;6.70;99.90;;;;;;2069344;28;20477;-79
2021/03/09 00:36:46;;;;;;;97.57;54.30;;;6.70;99.90;;;;;;2062982;28;20022;-80
2021/03/09 00:37:47;;;;;;;105.45;56.42;;;6.70;99.90;;;;;;2055766;28;20030;-80
2021/03/09 00:38:48;;;;;;;108.30;57.00;;;6.70;99.90;;;;;;2054801;28;20122;-80
2021/03/09 00:39:48;;;;;;;109.13;57.60;;;6.70;99.90;;;;;;2055850;28;20031;-78
2021/03/09 00:40:49;;;;;;;102.70;56.17;;;6.80;99.90;;;;;;2055618;28;20448;-78
2021/03/09 00:41:50;;;;;;;103.78;55.67;;;6.70;99.90;;;;;;2048141;29;20023;-79
2021/03/09 00:42:51;;;;;;;103.05;55.88;;;6.80;99.90;;;;;;2063082;28;20018;-79
2021/03/09 00:43:51;;;;;;;103.25;56.80;;;6.80;99.90;;;;;;2064071;28;20057;-81
2021/03/09 00:44:52;;;;;;;102.50;57.83;;;6.80;99.90;;;;;;2055528;28;20031;-80
2021/03/09 00:45:52;;;;;;;105.50;56.15;;;6.80;99.90;;;;;;2056308;28;20052;-79
2021/03/09 00:46:53;;;;;;;110.07;58.67;;;6.80;99.90;;;;;;2055332;28;20035;-80
2021/03/09 00:47:54;;;;;;;100.95;55.72;;;6.80;99.90;;;;;;2056015;28;20071;-79
2021/03/09 00:48:55;;;;;;;103.40;55.10;;;6.80;99.90;;;;;;2055724;28;20047;-80
2021/03/09 00:49:55;;;;;;;99.70;54.85;;;6.80;99.90;;;;;;2055572;28;20043;-79
2021/03/09 00:50:56;;;;;;;103.07;56.15;;;6.80;99.90;;;;;;2063769;28;20026;-79
2021/03/09 00:51:57;;;;;;;106.05;56.70;;;6.80;99.90;;;;;;2063534;28;20129;-80
2021/03/09 00:52:58;;;;;;;102.20;55.40;;;6.80;99.90;;;;;;2055006;28;20041;-80
2021/03/09 00:53:58;;;;;;;105.63;56.25;;;6.80;99.90;;;;;;2063551;28;20109;-80
2021/03/09 00:54:59;;;;;;;104.25;58.55;;;6.80;99.90;;;;;;2063260;28;20041;-80
2021/03/09 00:56:00;;;;;;;105.10;57.50;;;6.80;99.90;;;;;;2055973;28;20026;-79
2021/03/09 00:57:00;;;;;;;106.03;57.63;;;6.80;99.90;;;;;;2055274;28;20034;-80
2021/03/09 00:58:01;;;;;;;97.95;55.88;;;6.80;99.90;;;;;;2063478;28;20038;-78
2021/03/09 00:59:02;;;;;;;104.07;57.90;;;6.80;99.90;;;;;;2064301;28;20022;-80
2021/03/09 01:00:05;;;;;;;102.40;56.20;;;6.80;99.90;;;;;;2063758;28;20031;-79
2021/03/09 01:01:05;;;;;;;107.05;55.53;;;6.80;99.90;;;;;;2055912;28;20077;-79
2021/03/09 01:02:06;;;;;;;99.43;54.42;;;6.80;99.90;;;;;;2055680;28;20051;-80
2021/03/09 01:03:06;;;;;;;102.07;55.97;;;6.90;99.90;;;;;;2055852;28;20039;-79
2021/03/09 01:04:07;;;;;;;110.07;56.78;;;6.80;99.90;;;;;;2064630;28;20026;-80
2021/03/09 01:05:08;;;;;;;102.57;57.00;;;6.80;99.90;;;;;;2063476;28;20026;-80
2021/03/09 01:06:09;;;;;;;103.40;55.83;;;6.80;99.90;;;;;;2055576;28;20037;-79
2021/03/09 01:07:10;;;;;;;99.60;56.15;;;6.90;99.90;;;;;;2060987;28;20095;-82
2021/03/09 01:08:10;;;;;;;100.90;57.20;;;6.80;99.90;;;;;;2069786;28;20062;-81
2021/03/09 01:09:11;;;;;;;109.03;60.00;;;6.80;99.90;;;;;;2069004;28;20022;-82
2021/03/09 01:10:13;;;;;;;102.85;57.55;;;6.80;99.90;;;;;;2070578;28;20139;-82
2021/03/09 01:11:14;;;;;;;103.60;56.85;;;6.80;99.90;;;;;;2069734;28;20030;-82
2021/03/09 01:12:14;;;;;;;107.85;57.58;;;6.90;99.90;;;;;;2061705;28;20054;-81
2021/03/09 01:13:15;;;;;;;100.43;56.08;;;6.80;99.90;;;;;;2062332;28;20030;-83
2021/03/09 01:14:16;;;;;;;105.03;57.97;;;6.80;99.90;;;;;;2061185;28;20038;-81
2021/03/09 01:15:17;;;;;;;100.28;57.35;;;6.80;99.90;;;;;;2062686;28;20059;-82
2021/03/09 01:16:17;;;;;;;106.05;56.33;;;6.80;99.90;;;;;;2062527;28;20030;-82
2021/03/09 01:17:18;;;;;;;98.88;55.92;;;6.80;99.90;;;;;;2062018;28;20031;-81
2021/03/09 01:18:20;;;;;;;100.53;56.15;;;6.80;99.90;;;;;;2059311;28;20098;-81
2021/03/09 01:19:21;;;;;;;101.30;55.65;;;6.80;99.90;;;;;;2061927;28;20023;-80
2021/03/09 01:20:21;;;;;;;96.22;54.17;;;6.80;99.90;;;;;;2062216;28;20034;-82
2021/03/09 01:21:22;;;;;;;96.88;55.03;;;6.80;99.90;;;;;;2062371;28;20030;-80
2021/03/09 01:22:23;;;;;;;98.00;55.95;;;6.80;99.90;;;;;;2054234;29;20067;-82
2021/03/09 01:23:24;;;;;;;92.90;54.15;;;6.80;99.90;;;;;;2069514;28;20026;-82
2021/03/09 01:24:24;;;;;;;94.78;54.30;;;6.80;99.90;;;;;;2069163;28;20022;-80
2021/03/09 01:25:25;;;;;;;91.07;54.95;;;6.80;99.90;;;;;;2062250;28;20030;-81
2021/03/09 01:26:26;;;;;;;89.93;53.00;;;6.80;99.90;;;;;;2062199;28;20031;-80
2021/03/09 01:27:27;;;;;;;95.78;53.97;;;6.80;99.90;;;;;;2061580;28;20027;-80
2021/03/09 01:28:27;;;;;;;94.25;52.88;;;6.80;99.90;;;;;;2062001;28;20121;-81
2021/03/09 01:29:28;;;;;;;91.13;52.85;;;6.80;99.90;;;;;;2062349;28;20101;-80
2021/03/09 01:30:29;;;;;;;95.97;55.95;;;6.80;99.90;;;;;;2061515;28;20018;-82
2021/03/09 01:31:30;;;;;;;93.85;53.55;;;6.80;99.90;;;;;;2069436;28;20022;-80
2021/03/09 01:32:30;;;;;;;98.10;55.63;;;6.80;99.90;;;;;;2069291;28;20033;-80
2021/03/09 01:33:31;;;;;;;90.20;52.38;;;6.80;99.90;;;;;;2062549;28;20050;-80
2021/03/09 01:34:32;;;;;;;92.47;51.85;;;6.80;99.90;;;;;;2070085;28;20022;-80
2021/03/09 01:35:33;;;;;;;88.97;51.72;;;6.80;99.90;;;;;;2070450;28;20022;-80
2021/03/09 01:36:33;;;;;;;87.75;51.53;;;6.80;99.90;;;;;;2062110;28;20022;-81
2021/03/09 01:37:34;;;;;;;88.75;53.60;;;6.80;99.90;;;;;;2060820;28;20026;-80
2021/03/09 01:38:34;;;;;;;90.97;51.63;;;6.80;99.90;;;;;;2061186;28;20591;-81
2021/03/09 01:39:35;;;;;;;92.68;53.60;;;6.80;99.90;;;;;;2053805;29;20047;-81
2021/03/09 01:40:36;;;;;;;95.47;53.90;;;6.80;99.90;;;;;;2066628;28;20054;-82
2021/03/09 01:41:37;;;;;;;89.95;53.35;;;6.90;99.90;;;;;;2078246;28;20064;-82
2021/03/09 01:42:38;;;;;;;88.15;51.58;;;6.90;99.90;;;;;;2063947;28;20485;-81
2021/03/09 01:43:40;;;;;;;92.65;54.60;;;6.90;99.90;;;;;;2070531;28;20018;-80
2021/03/09 01:44:41;;;;;;;92.90;53.70;;;6.90;99.90;;;;;;2070033;28;20018;-80
2021/03/09 01:45:42;;;;;;;94.55;53.40;;;6.90;99.90;;;;;;2061357;28;20019;-81
2021/03/09 01:46:44;;;;;;;92.72;53.35;;;6.90;99.90;;;;;;2064755;28;20029;-81
2021/03/09 01:47:48;;;;;;;90.72;52.97;;;6.90;99.90;;;;;;2061437;28;20091;-80
2021/03/09 01:48:49;;;;;;;84.88;49.83;;;6.90;99.90;;;;;;2061451;28;20561;-81
2021/03/09 01:49:50;;;;;;;96.03;53.47;;;6.90;99.90;;;;;;2061811;28;20473;-81
2021/03/09 01:50:51;;;;;;;93.95;54.47;;;6.90;99.90;;;;;;2062033;28;20033;-81
2021/03/09 01:51:52;;;;;;;93.10;53.15;;;6.90;99.90;;;;;;2070884;28;20129;-82
2021/03/09 01:52:53;;;;;;;94.35;55.10;;;6.90;99.90;;;;;;2069242;28;20532;-80
2021/03/09 01:53:54;;;;;;;90.38;54.15;;;6.90;99.90;;;;;;2058714;28;20030;-81
2021/03/09 01:54:55;;;;;;;93.47;54.95;;;6.90;99.90;;;;;;2069462;28;20031;-80
2021/03/09 01:55:57;;;;;;;85.18;53.33;;;6.90;99.90;;;;;;2069976;28;20037;-82
2021/03/09 01:56:58;;;;;;;93.70;55.22;;;6.80;99.90;;;;;;2070076;28;20030;-83
2021/03/09 01:58:00;;;;;;;93.13;53.63;;;6.80;99.90;;;;;;2061606;28;20094;-80
2021/03/09 01:59:01;;;;;;;92.72;54.42;;;6.80;99.90;;;;;;2070002;28;20046;-82
2021/03/09 02:00:04;;;;;;;89.93;52.97;;;6.80;99.90;;;;;;2069513;28;20026;-80
2021/03/09 02:01:05;;;;;;;84.53;52.20;;;6.80;99.90;;;;;;2062472;28;20095;-80
2021/03/09 02:02:06;;;;;;;85.28;54.10;;;6.90;99.90;;;;;;2061388;28;20028;-80
2021/03/09 02:03:08;;;;;;;88.00;52.85;;;6.80;99.90;;;;;;2069366;28;20649;-80
2021/03/09 02:04:09;;;;;;;84.50;52.92;;;6.80;99.90;;;;;;2061840;28;20019;-81
2021/03/09 02:05:12;;;;;;;89.60;55.63;;;6.80;99.90;;;;;;2061449;28;20055;-80
2021/03/09 02:06:14;;;;;;;88.40;53.80;;;6.90;99.90;;;;;;2071435;28;20122;-81
2021/03/09 02:07:15;;;;;;;88.35;53.67;;;6.80;99.90;;;;;;2070152;28;20041;-82
2021/03/09 02:08:16;;;;;;;85.50;53.28;;;6.90;99.90;;;;;;2070886;28;20049;-80
2021/03/09 02:09:19;;;;;;;87.22;51.03;;;6.80;99.90;;;;;;2071998;28;20041;-80
2021/03/09 02:10:20;;;;;;;88.13;52.78;;;6.90;99.90;;;;;;2063583;28;20034;-80
2021/03/09 02:11:45;;;;;;;83.45;51.15;;;6.90;99.90;;;;;;2063198;28;20531;-80
2021/03/09 02:13:19;;;;;;;83.60;50.45;;;6.80;99.90;;;;;;2071336;28;20030;-82
2021/03/09 02:14:35;;;;;;;82.30;48.92;;;6.80;99.90;;;;;;2072118;28;20044;-82
2021/03/09 02:15:50;;;;;;;88.18;54.83;;;6.80;99.90;;;;;;2070750;28;20030;-80
2021/03/09 02:16:58;;;;;;;86.72;53.83;;;6.80;99.90;;;;;;2068808;28;20087;-80
2021/03/09 02:18:23;;;;;;;87.63;51.92;;;6.70;99.90;;;;;;2068278;28;20038;-79
2021/03/09 02:20:04;;;;;;;87.43;51.22;;;6.70;99.90;;;;;;2063452;28;20023;-80
2021/03/09 02:21:24;;;;;;;88.03;52.00;;;6.70;99.90;;;;;;2063236;28;20050;-80
2021/03/09 02:22:43;;;;;;;;;;;6.70;99.90;;;;;;2069024;28;20046;-79
2021/03/09 02:24:21;;;;;;;81.25;48.13;;;6.60;99.90;;;;;;2063146;28;19910;-80
2021/03/09 02:25:51;;;;;;;77.57;46.97;;;6.60;99.90;;;;;;2056625;28;20023;-80
2021/03/09 02:27:16;;;;;;;75.60;48.20;;;6.60;99.90;;;;;;2060890;28;20073;-80
2021/03/09 02:28:37;;;;;;;75.57;48.38;;;6.60;99.90;;;;;;2059909;28;20258;-80
2021/03/09 02:29:40;;;;;;;73.90;48.17;;;6.60;99.90;;;;;;2061013;28;20031;-80
2021/03/09 02:30:44;;;;;;;78.00;47.65;;;6.60;99.90;;;;;;2060072;28;20031;-80
2021/03/09 02:31:50;;;;;;;78.22;49.25;;;6.60;99.90;;;;;;2061814;28;20037;-80
2021/03/09 02:33:09;;;;;;;72.97;45.83;;;6.70;99.90;;;;;;2061459;28;20132;-80
2021/03/09 02:34:20;;;;;;;76.85;48.60;;;6.70;99.90;;;;;;2062951;28;20026;-79
2021/03/09 02:35:24;;;;;;;74.05;47.85;;;6.60;99.90;;;;;;2068715;28;20516;-79
2021/03/09 02:36:28;;;;;;;77.05;47.67;;;6.70;99.90;;;;;;2062138;28;20554;-80
2021/03/09 02:37:35;;;;;;;75.53;48.83;;;6.60;99.90;;;;;;2067145;28;20552;-80
2021/03/09 02:38:43;;;;;;;71.25;47.30;;;6.60;99.90;;;;;;2053884;28;20288;-80
2021/03/09 02:39:45;;;;;;;71.20;47.33;;;6.60;99.90;;;;;;2055921;28;20501;-80
2021/03/09 02:40:49;;;;;;;74.07;47.55;;;6.60;99.90;;;;;;2060551;28;20602;-80
2021/03/09 02:41:54;;;;;;;76.63;48.10;;;6.70;99.90;;;;;;2059925;28;20030;-80
2021/03/09 02:43:00;;;;;;;71.75;48.10;;;6.70;99.90;;;;;;2067996;28;20533;-80
2021/03/09 02:44:03;;;;;;;70.65;46.63;;;6.70;99.90;;;;;;2068751;28;20018;-80
2021/03/09 02:45:05;;;;;;;69.85;47.10;;;6.70;99.90;;;;;;2068011;28;20470;-79
2021/03/09 02:46:06;;;;;;;75.53;48.33;;;6.70;99.90;;;;;;2068770;28;20042;-79
2021/03/09 02:47:11;;;;;;;72.07;48.15;;;6.70;99.90;;;;;;2060025;28;20031;-80
2021/03/09 02:48:12;;;;;;;74.78;49.88;;;6.70;99.90;;;;;;2068582;28;20139;-79
2021/03/09 02:49:14;;;;;;;70.80;47.10;;;6.70;99.90;;;;;;2068387;28;20043;-80
2021/03/09 02:50:19;;;;;;;78.78;49.60;;;6.70;99.90;;;;;;2068654;28;20093;-80
2021/03/09 02:51:24;;;;;;;78.75;49.50;;;6.70;99.90;;;;;;2068810;28;20030;-79
2021/03/09 02:52:27;;;;;;;77.53;49.30;;;6.70;99.90;;;;;;2066131;28;20066;-81
2021/03/09 02:53:33;;;;;;;77.00;49.40;;;6.70;99.90;;;;;;2058656;28;20393;-80
2021/03/09 02:54:36;;;;;;;78.25;49.10;;;6.70;99.90;;;;;;2067524;28;20038;-80
2021/03/09 02:55:38;;;;;;;76.85;48.95;;;6.70;99.90;;;;;;2066100;28;20040;-81
2021/03/09 02:56:40;;;;;;;80.20;49.95;;;6.70;99.90;;;;;;2059152;28;20144;-81
2021/03/09 02:57:42;;;;;;;74.00;48.08;;;6.70;99.90;;;;;;2066883;28;20506;-80
2021/03/09 02:58:56;;;;;;;75.07;50.00;;;6.70;99.90;;;;;;2057929;28;20096;-81
2021/03/09 02:59:58;;;;;;;76.60;47.63;;;6.70;99.90;;;;;;2060287;28;20560;-80
2021/03/09 03:01:00;;;;;;;70.65;46.42;;;6.70;99.90;;;;;;2060288;28;20023;-81
2021/03/09 03:02:01;;;;;;;76.68;48.70;;;6.70;99.90;;;;;;2060313;28;20046;-80
2021/03/09 03:03:09;;;;;;;77.28;49.88;;;6.70;99.90;;;;;;2069113;28;20022;-80
2021/03/09 03:04:15;;;;;;;81.63;49.60;;;6.70;99.90;;;;;;2069800;28;20593;-80
2021/03/09 03:05:17;;;;;;;73.35;48.63;;;6.70;99.90;;;;;;2061648;28;20117;-81
2021/03/09 03:06:19;;;;;;;74.28;45.78;;;6.70;99.90;;;;;;2068405;28;20030;-80
2021/03/09 03:07:21;;;;;;;75.20;48.42;;;6.70;99.90;;;;;;2067221;28;20513;-80
2021/03/09 03:08:23;;;;;;;76.15;48.13;;;6.70;99.90;;;;;;2059901;28;20031;-80
2021/03/09 03:09:25;;;;;;;75.10;48.72;;;6.70;99.90;;;;;;2068436;28;20026;-80
2021/03/09 03:10:26;;;;;;;74.05;48.35;;;6.70;99.90;;;;;;2067587;28;20360;-82
2021/03/09 03:11:27;;;;;;;74.97;46.28;;;6.70;99.90;;;;;;2061257;28;20027;-80
2021/03/09 03:12:34;;;;;;;76.63;46.00;;;6.70;99.90;;;;;;2067351;28;20120;-80
2021/03/09 03:13:36;;;;;;;69.82;45.95;;;6.60;99.90;;;;;;2068678;28;20033;-81
2021/03/09 03:14:41;;;;;;;70.30;45.92;;;6.60;99.90;;;;;;2060151;28;20031;-80
2021/03/09 03:15:42;;;;;;;73.30;45.38;;;6.60;99.90;;;;;;2060901;28;20027;-83
2021/03/09 03:16:44;;;;;;;70.50;45.40;;;6.60;99.90;;;;;;2066607;28;20030;-81
2021/03/09 03:17:46;;;;;;;70.88;44.40;;;6.60;99.90;;;;;;2059302;28;20031;-81
2021/03/09 03:18:48;;;;;;;68.72;43.70;;;6.60;99.90;;;;;;2069190;28;20053;-80
2021/03/09 03:19:51;;;;;;;69.88;44.50;;;6.60;99.90;;;;;;2067224;28;20077;-81
2021/03/09 03:20:52;;;;;;;71.68;44.95;;;6.60;99.90;;;;;;2059020;28;20034;-80
2021/03/09 03:21:53;;;;;;;68.63;45.40;;;6.60;99.90;;;;;;2067443;28;20022;-81
2021/03/09 03:22:55;;;;;;;61.40;42.92;;;6.50;99.90;;;;;;2060610;28;20033;-80
2021/03/09 03:24:01;;;;;;;72.18;45.45;;;6.60;99.90;;;;;;2061573;28;20114;-81
2021/03/09 03:25:03;;;;;;;67.15;43.17;;;6.50;99.90;;;;;;2060233;28;20027;-81
2021/03/09 03:26:06;;;;;;;68.60;45.22;;;6.60;99.90;;;;;;2060363;28;20026;-81
2021/03/09 03:27:07;;;;;;;65.80;41.40;;;6.50;99.90;;;;;;2061113;28;20092;-81
2021/03/09 03:28:09;;;;;;;70.57;45.08;;;6.50;99.90;;;;;;2065733;28;20069;-81
2021/03/09 03:29:11;;;;;;;67.13;42.58;;;6.50;99.90;;;;;;2062020;28;20038;-81
2021/03/09 03:30:14;;;;;;;68.25;43.58;;;6.60;99.90;;;;;;2060255;28;20109;-81
2021/03/09 03:31:15;;;;;;;64.78;42.90;;;6.60;99.90;;;;;;2058238;28;20101;-81
2021/03/09 03:32:16;;;;;;;65.18;42.85;;;6.50;99.90;;;;;;2060551;28;20042;-81
2021/03/09 03:33:17;;;;;;;61.80;40.67;;;6.60;99.90;;;;;;2058851;28;20037;-80
2021/03/09 03:34:18;;;;;;;65.45;43.15;;;6.60;99.90;;;;;;2059341;28;20077;-78
2021/03/09 03:35:19;;;;;;;61.35;42.45;;;6.50;99.90;;;;;;2059043;28;20592;-79
2021/03/09 03:36:20;;;;;;;60.55;41.85;;;6.50;99.90;;;;;;2059461;28;20122;-80
2021/03/09 03:37:21;;;;;;;65.85;43.58;;;6.50;99.90;;;;;;2057615;28;20026;-79
2021/03/09 03:38:22;;;;;;;62.10;41.00;;;6.50;99.90;;;;;;2050835;28;20034;-79
2021/03/09 03:39:22;;;;;;;64.90;43.30;;;6.50;99.90;;;;;;2054410;28;20042;-79
2021/03/09 03:40:24;;;;;;;65.38;41.00;;;6.50;99.90;;;;;;2060123;28;20022;-80
2021/03/09 03:41:25;;;;;;;64.45;41.85;;;6.50;99.90;;;;;;2067080;28;20050;-80
2021/03/09 03:42:25;;;;;;;61.85;40.22;;;6.50;99.90;;;;;;2068174;28;20023;-78
2021/03/09 03:43:26;;;;;;;64.63;40.45;;;6.50;99.90;;;;;;2058856;28;20042;-78
2021/03/09 03:44:27;;;;;;;66.32;42.17;;;6.50;99.90;;;;;;2060047;28;20018;-80
2021/03/09 03:45:28;;;;;;;59.00;40.38;;;6.50;99.90;;;;;;2056813;28;20482;-79
2021/03/09 03:46:28;;;;;;;58.67;40.45;;;6.50;99.90;;;;;;2054790;28;20038;-80
2021/03/09 03:47:29;;;;;;;56.28;39.70;;;6.50;99.90;;;;;;2059758;28;20029;-80
2021/03/09 03:48:34;;;;;;;65.18;43.63;;;6.60;99.90;;;;;;2053310;28;20030;-79
2021/03/09 03:49:35;;;;;;;64.93;41.40;;;6.50;99.90;;;;;;2067562;28;20046;-80
2021/03/09 03:50:36;;;;;;;63.33;41.30;;;6.50;99.90;;;;;;2059984;28;20053;-80
2021/03/09 03:51:43;;;;;;;59.60;39.63;;;6.50;99.90;;;;;;2059928;28;20431;-80
2021/03/09 03:53:34;;;;;;;61.50;40.75;;;6.50;99.90;;;;;;2061182;28;20023;-81
2021/03/09 03:55:11;;;;;;;58.95;39.13;;;6.50;99.90;;;;;;2052475;29;20061;-81
2021/03/09 03:56:24;;;;;;;58.17;37.67;;;6.50;99.90;;;;;;2057012;28;20453;-82
2021/03/09 03:57:31;;;;;;;61.75;41.30;;;6.40;99.90;;;;;;2061967;28;20035;-81
2021/03/09 03:58:57;;;;;;;63.35;43.17;;;6.40;99.90;;;;;;2061144;28;20023;-81
2021/03/09 04:00:02;;;;;;;60.08;39.53;;;6.40;99.90;;;;;;2070611;28;20424;-81
2021/03/09 04:01:07;;;;;;;61.03;41.75;;;6.40;99.90;;;;;;2061023;28;20022;-81
2021/03/09 04:02:11;;;;;;;65.28;42.95;;;6.40;99.90;;;;;;2061236;28;20437;-82
2021/03/09 04:03:14;;;;;;;66.50;43.67;;;6.40;99.90;;;;;;2069500;28;20504;-81
2021/03/09 04:04:15;;;;;;;64.18;43.15;;;6.40;99.90;;;;;;2068135;28;20031;-80
2021/03/09 04:05:20;;;;;;;61.25;42.47;;;6.40;99.90;;;;;;2062341;28;20031;-81
2021/03/09 04:06:27;;;;;;;62.45;42.50;;;6.40;99.90;;;;;;2067485;28;20463;-82
2021/03/09 04:07:27;;;;;;;61.28;42.30;;;6.30;99.90;;;;;;2068117;28;20023;-80
2021/03/09 04:08:30;;;;;;;64.80;42.30;;;6.40;99.90;;;;;;2059940;28;20027;-79
2021/03/09 04:09:31;;;;;;;63.92;42.38;;;6.40;99.90;;;;;;2064522;28;20102;-80
2021/03/09 04:10:33;;;;;;;65.50;45.17;;;6.40;99.90;;;;;;2064192;28;20508;-79
2021/03/09 04:11:36;;;;;;;62.55;41.85;;;6.40;99.90;;;;;;2055593;28;20030;-79
2021/03/09 04:12:36;;;;;;;67.93;42.88;;;6.40;99.90;;;;;;2064219;28;20164;-79
2021/03/09 04:13:42;;;;;;;66.32;43.45;;;6.40;99.90;;;;;;2064095;28;20473;-80
2021/03/09 04:14:42;;;;;;;67.72;42.92;;;6.40;99.90;;;;;;2056958;28;20054;-80
2021/03/09 04:15:43;;;;;;;64.03;43.95;;;6.40;99.90;;;;;;2064224;28;20054;-78
2021/03/09 04:16:48;;;;;;;65.90;44.28;;;6.40;99.90;;;;;;2063918;28;20040;-80
2021/03/09 04:17:50;;;;;;;66.70;44.25;;;6.40;99.90;;;;;;2056584;28;20429;-79
2021/03/09 04:18:52;;;;;;;66.28;42.90;;;6.40;99.90;;;;;;2064724;28;20045;-79
2021/03/09 04:19:56;;;;;;;65.50;43.85;;;6.40;99.90;;;;;;2064353;28;20047;-80
2021/03/09 04:20:58;;;;;;;66.20;44.78;;;6.50;99.90;;;;;;2051674;28;20382;-80
2021/03/09 04:22:00;;;;;;;67.80;44.85;;;6.50;99.90;;;;;;2064835;28;20540;-79
2021/03/09 04:23:03;;;;;;;68.28;44.22;;;6.50;99.90;;;;;;2063566;28;20022;-80
2021/03/09 04:24:05;;;;;;;72.28;47.47;;;6.50;99.90;;;;;;2064642;28;20509;-80
2021/03/09 04:25:07;;;;;;;69.03;45.30;;;6.50;99.90;;;;;;2048205;28;20126;-81
2021/03/09 04:26:09;;;;;;;70.53;47.95;;;6.50;99.90;;;;;;2051716;28;20114;-80
2021/03/09 04:27:20;;;;;;;67.97;43.15;;;6.50;99.90;;;;;;2055066;28;20019;-79
2021/03/09 04:28:22;;;;;;;67.93;45.83;;;6.40;99.90;;;;;;2049344;28;20035;-80
2021/03/09 04:29:23;;;;;;;69.57;45.13;;;6.40;99.90;;;;;;2051765;28;20034;-81
2021/03/09 04:30:24;;;;;;;67.57;44.55;;;6.50;99.90;;;;;;2056137;28;20019;-80
2021/03/09 04:31:26;;;;;;;69.15;44.58;;;6.50;99.90;;;;;;2056222;28;20125;-80
2021/03/09 04:32:28;;;;;;;70.68;46.28;;;6.50;99.90;;;;;;2064204;28;20061;-81
2021/03/09 04:33:29;;;;;;;69.72;45.97;;;6.50;99.90;;;;;;2063527;28;20379;-80
2021/03/09 04:34:30;;;;;;;69.22;44.33;;;6.50;99.90;;;;;;2064831;28;20429;-80
2021/03/09 04:35:31;;;;;;;71.13;44.30;;;6.50;99.90;;;;;;2055906;28;20114;-80
2021/03/09 04:36:33;;;;;;;73.45;46.53;;;6.50;99.90;;;;;;2056387;28;20098;-80
2021/03/09 04:37:35;;;;;;;71.10;46.92;;;6.50;99.90;;;;;;2055394;28;20029;-81
2021/03/09 04:38:36;;;;;;;64.40;43.70;;;6.50;99.90;;;;;;2048080;28;20034;-80
2021/03/09 04:39:38;;;;;;;64.18;44.33;;;6.40;99.90;;;;;;2055606;28;20027;-80
2021/03/09 04:40:40;;;;;;;67.25;44.20;;;6.40;99.90;;;;;;2061499;28;20022;-80
2021/03/09 04:41:41;;;;;;;67.55;46.30;;;6.40;99.90;;;;;;2064796;28;20429;-80
2021/03/09 04:42:42;;;;;;;66.00;45.20;;;6.40;99.90;;;;;;2058083;28;20070;-80
2021/03/09 04:43:43;;;;;;;64.65;43.45;;;6.40;99.90;;;;;;2055882;28;20030;-79
2021/03/09 04:44:43;;;;;;;71.13;46.45;;;6.30;99.90;;;;;;2056327;28;20023;-80
2021/03/09 04:45:45;;;;;;;68.55;46.28;;;6.30;99.90;;;;;;2056302;28;20025;-80
2021/03/09 04:46:45;;;;;;;66.90;44.72;;;6.30;99.90;;;;;;2053557;28;20444;-80
2021/03/09 04:47:47;;;;;;;71.45;47.58;;;6.30;99.90;;;;;;2056011;28;20034;-82
2021/03/09 04:48:49;;;;;;;69.10;45.45;;;6.30;99.90;;;;;;2059202;28;20061;-80
2021/03/09 04:49:55;;;;;;;68.85;46.55;;;6.30;99.90;;;;;;2059912;28;20031;-80
2021/03/09 04:51:02;;;;;;;68.85;46.70;;;6.30;99.90;;;;;;2066659;28;20023;-80
2021/03/09 04:52:04;;;;;;;70.30;47.22;;;6.30;99.90;;;;;;2061853;28;20034;-82
2021/03/09 04:53:08;;;;;;;70.88;46.45;;;6.30;99.90;;;;;;2061161;28;20034;-81
2021/03/09 04:54:09;;;;;;;72.57;47.75;;;6.30;99.90;;;;;;2061902;28;20022;-82
2021/03/09 04:55:11;;;;;;;75.45;48.78;;;6.20;99.90;;;;;;2068480;28;20026;-81
2021/03/09 04:56:12;;;;;;;68.70;46.13;;;6.30;99.90;;;;;;2061284;28;20073;-80
2021/03/09 04:57:13;;;;;;;73.63;48.58;;;6.30;99.90;;;;;;2060454;28;20037;-81
2021/03/09 04:58:13;;;;;;;73.13;48.88;;;6.30;99.90;;;;;;2060529;28;20064;-81
2021/03/09 04:59:14;;;;;;;71.05;46.53;;;6.30;99.90;;;;;;2061226;28;20122;-80
2021/03/09 05:00:20;;;;;;;73.78;48.22;;;6.30;99.90;;;;;;2060868;28;20126;-81
2021/03/09 05:01:21;;;;;;;72.07;48.45;;;6.30;99.90;;;;;;2061518;28;20019;-80
2021/03/09 05:02:21;;;;;;;75.80;48.95;;;6.30;99.90;;;;;;2062192;28;20030;-81
2021/03/09 05:03:25;;;;;;;69.93;47.28;;;6.30;99.90;;;;;;2060484;28;20042;-82
2021/03/09 05:04:26;;;;;;;74.75;48.05;;;6.30;99.90;;;;;;2061683;28;20027;-81
2021/03/09 05:05:26;;;;;;;70.38;47.50;;;6.30;99.90;;;;;;2063150;28;20057;-81
2021/03/09 05:06:27;;;;;;;70.38;47.28;;;6.20;99.90;;;;;;2061907;28;20098;-81
2021/03/09 05:07:28;;;;;;;68.72;47.08;;;6.30;99.90;;;;;;2060396;28;20320;-81
2021/03/09 05:08:29;;;;;;;72.50;47.33;;;6.20;99.90;;;;;;2060275;28;20059;-81
2021/03/09 05:09:29;;;;;;;70.35;46.92;;;6.30;99.90;;;;;;2069733;28;20440;-80
2021/03/09 05:10:30;;;;;;;72.35;48.33;;;6.30;99.90;;;;;;2068396;28;20500;-82
2021/03/09 05:11:31;;;;;;;74.88;50.58;;;6.20;99.90;;;;;;2061237;28;20034;-82
2021/03/09 05:12:32;;;;;;;76.57;51.13;;;6.30;99.90;;;;;;2061322;28;20109;-81
2021/03/09 05:13:33;;;;;;;71.85;47.67;;;6.20;99.90;;;;;;2060603;28;20506;-82
2021/03/09 05:14:34;;;;;;;69.40;47.45;;;6.20;99.90;;;;;;2059599;28;20070;-80
2021/03/09 05:15:34;;;;;;;72.30;50.20;;;6.30;99.90;;;;;;2055767;28;20038;-80
2021/03/09 05:16:35;;;;;;;70.70;48.78;;;6.30;99.90;;;;;;2056738;28;20520;-81
2021/03/09 05:17:36;;;;;;;75.35;51.47;;;6.30;99.90;;;;;;2055495;28;20121;-80
2021/03/09 05:18:37;;;;;;;75.25;49.97;;;6.30;99.90;;;;;;2055957;28;20027;-80
2021/03/09 05:19:37;;;;;;;72.75;48.42;;;6.30;99.90;;;;;;2063568;28;20043;-80
2021/03/09 05:20:38;;;;;;;72.47;49.67;;;6.30;99.90;;;;;;2063991;28;20035;-80
2021/03/09 05:21:39;;;;;;;73.70;48.42;;;6.30;99.90;;;;;;2064758;28;20496;-81
2021/03/09 05:22:40;;;;;;;75.13;49.90;;;6.30;99.90;;;;;;2064355;28;20074;-80
2021/03/09 05:23:41;;;;;;;71.35;49.78;;;6.30;99.90;;;;;;2064060;28;20457;-80